Time;durP1;ratioP1;P1;durP2;ratioP2;P2;SDS_P1;SDS_P2;PMS_P1;PMS_P2;Temp;Humidity;BMP_temperature;BMP_pressure;BME280_temperature;BME280_humidity;BME280_pressure;Samples;Min_cycle;Max_cycle;Signal;HPM_P1;HPM_P2
2021/04/26 00:02:03;;;;;;;0.50;0.40;;;4.50;99.90;;;;;;5077399;28;20669;-81
2021/04/26 00:04:30;;;;;;;0.50;0.40;;;4.50;99.90;;;;;;5070310;28;20281;-79
2021/04/26 00:06:56;;;;;;;0.50;0.40;;;4.40;99.90;;;;;;5077565;28;20214;-80
2021/04/26 00:09:22;;;;;;;0.50;0.40;;;4.40;99.90;;;;;;5077676;28;20196;-80
2021/04/26 00:11:50;;;;;;;0.50;0.40;;;4.40;99.90;;;;;;5078140;28;20204;-80
2021/04/26 00:14:17;;;;;;;0.50;0.40;;;4.30;99.90;;;;;;5078055;28;20207;-80
2021/04/26 00:16:43;;;;;;;0.50;0.40;;;4.30;99.90;;;;;;5078304;28;20218;-80
2021/04/26 00:19:10;;;;;;;0.50;0.50;;;4.40;99.90;;;;;;5078449;28;20201;-79
2021/04/26 00:21:36;;;;;;;0.50;0.40;;;4.30;99.90;;;;;;5077712;28;20204;-81
2021/04/26 00:24:03;;;;;;;0.50;0.40;;;4.30;99.90;;;;;;5077722;28;20226;-83
2021/04/26 00:26:29;;;;;;;0.50;0.40;;;4.30;99.90;;;;;;5078414;28;20237;-80
2021/04/26 00:28:56;;;;;;;0.50;0.43;;;4.20;99.90;;;;;;5078323;28;20204;-81
2021/04/26 00:31:22;;;;;;;0.50;0.40;;;4.20;99.90;;;;;;5077911;28;20211;-81
2021/04/26 00:33:49;;;;;;;0.50;0.40;;;4.20;99.90;;;;;;5075395;28;20250;-80
2021/04/26 00:36:15;;;;;;;7.43;5.18;;;4.10;99.90;;;;;;5072055;28;20200;-81
2021/04/26 00:38:41;;;;;;;0.50;0.40;;;4.10;99.90;;;;;;5078278;28;20193;-81
2021/04/26 00:41:08;;;;;;;0.50;0.40;;;4.00;99.90;;;;;;5078306;28;20196;-81
2021/04/26 00:43:34;;;;;;;0.50;0.40;;;4.00;99.90;;;;;;5078177;28;20218;-81
2021/04/26 00:46:01;;;;;;;0.50;0.40;;;3.90;99.90;;;;;;5077850;28;20226;-82
2021/04/26 00:48:28;;;;;;;0.50;0.40;;;3.90;99.90;;;;;;5077754;28;20253;-82
2021/04/26 00:50:54;;;;;;;0.50;0.40;;;3.90;99.90;;;;;;5077838;28;20241;-79
2021/04/26 00:53:21;;;;;;;0.50;0.50;;;3.80;99.90;;;;;;5077813;28;20235;-82
2021/04/26 00:55:48;;;;;;;0.50;0.40;;;3.70;99.90;;;;;;5077499;28;20198;-79
2021/04/26 00:58:14;;;;;;;0.60;0.60;;;3.60;99.90;;;;;;5077885;28;20210;-82
2021/04/26 01:00:41;;;;;;;0.50;0.40;;;3.60;99.90;;;;;;5077508;28;20199;-81
2021/04/26 01:03:08;;;;;;;0.50;0.40;;;3.50;99.90;;;;;;5077246;28;20221;-81
2021/04/26 01:05:36;;;;;;;0.50;0.40;;;3.50;99.90;;;;;;5068653;28;20216;-80
2021/04/26 01:08:03;;;;;;;0.50;0.40;;;3.50;99.90;;;;;;5078286;28;20197;-82
2021/04/26 01:10:32;;;;;;;0.50;0.40;;;3.40;99.90;;;;;;5077445;28;20210;-81
2021/04/26 01:13:37;;;;;;;0.50;0.40;;;3.30;99.90;;;;;;5082565;28;20772;-79
2021/04/26 01:16:12;;;;;;;0.50;0.40;;;3.30;99.90;;;;;;5084559;28;20560;-82
2021/04/26 01:18:49;;;;;;;0.50;0.45;;;3.30;99.90;;;;;;5084265;28;20235;-80
2021/04/26 01:21:53;;;;;;;0.50;0.40;;;3.20;99.90;;;;;;5083726;28;20221;-81
2021/04/26 01:24:49;;;;;;;0.50;0.40;;;3.20;99.90;;;;;;5083288;28;20190;-80
2021/04/26 01:27:44;;;;;;;0.50;0.40;;;3.20;99.90;;;;;;5084161;28;20182;-80
2021/04/26 01:30:14;;;;;;;0.50;0.40;;;3.10;99.90;;;;;;5083866;28;20199;-83
2021/04/26 01:32:43;;;;;;;0.50;0.40;;;3.10;99.90;;;;;;5082864;28;20725;-81
2021/04/26 01:35:14;;;;;;;0.50;0.40;;;3.10;99.90;;;;;;5075567;28;20183;-81
2021/04/26 01:37:42;;;;;;;0.50;0.40;;;3.00;99.90;;;;;;5083388;28;20194;-80
2021/04/26 01:40:12;;;;;;;0.50;0.40;;;3.00;99.90;;;;;;5083751;28;20195;-80
2021/04/26 01:42:40;;;;;;;0.50;0.40;;;3.10;99.90;;;;;;5083177;28;20230;-80
2021/04/26 01:45:10;;;;;;;0.50;0.40;;;3.00;99.90;;;;;;5084320;28;20243;-80
2021/04/26 01:47:38;;;;;;;0.50;0.40;;;3.00;99.90;;;;;;5084169;28;20199;-81
2021/04/26 01:50:09;;;;;;;0.50;0.40;;;2.90;99.90;;;;;;5083241;28;20194;-81
2021/04/26 01:52:36;;;;;;;0.50;0.40;;;2.90;99.90;;;;;;5083012;28;20244;-81
2021/04/26 01:55:03;;;;;;;0.50;0.40;;;2.90;99.90;;;;;;5083223;28;20202;-81
2021/04/26 01:57:30;;;;;;;0.50;0.40;;;2.90;99.90;;;;;;5083593;28;20203;-79
2021/04/26 01:59:57;;;;;;;0.50;0.40;;;2.90;99.90;;;;;;5083728;28;20280;-80
2021/04/26 02:02:24;;;;;;;0.50;0.50;;;2.90;99.90;;;;;;5081715;28;20229;-79
2021/04/26 02:04:52;;;;;;;0.50;0.40;;;2.90;99.90;;;;;;5074576;28;20196;-83
2021/04/26 02:07:20;;;;;;;0.50;0.40;;;2.90;99.90;;;;;;5084084;28;20204;-78
2021/04/26 02:09:47;;;;;;;0.50;0.40;;;2.90;99.90;;;;;;5083837;28;20197;-79
2021/04/26 02:12:15;;;;;;;0.50;0.50;;;2.90;99.90;;;;;;5082949;28;20220;-81
2021/04/26 02:14:43;;;;;;;0.50;0.40;;;2.90;99.90;;;;;;5084008;28;20201;-82
2021/04/26 02:17:09;;;;;;;0.50;0.40;;;2.90;99.90;;;;;;5083482;28;20197;-81
2021/04/26 02:19:36;;;;;;;0.50;0.40;;;2.90;99.90;;;;;;5084410;28;20221;-81
2021/04/26 02:22:03;;;;;;;0.50;0.40;;;2.90;99.90;;;;;;5090161;28;20218;-82
2021/04/26 02:24:31;;;;;;;0.50;0.40;;;3.00;99.90;;;;;;5082210;28;20286;-80
2021/04/26 02:26:58;;;;;;;0.50;0.40;;;3.00;99.90;;;;;;5080538;28;20214;-81
2021/04/26 02:29:25;;;;;;;0.50;0.40;;;3.10;99.90;;;;;;5080222;28;20301;-81
2021/04/26 02:31:59;;;;;;;0.50;0.40;;;3.10;99.90;;;;;;5079686;28;20200;-81
2021/04/26 02:34:27;;;;;;;0.50;0.40;;;3.10;99.90;;;;;;5068943;28;20193;-81
2021/04/26 02:36:59;;;;;;;0.50;0.40;;;3.10;99.90;;;;;;5079472;28;20192;-81
2021/04/26 02:39:28;;;;;;;0.50;0.40;;;3.10;99.90;;;;;;5079476;28;20219;-82
2021/04/26 02:41:55;;;;;;;0.50;0.40;;;3.00;99.90;;;;;;5079817;28;20202;-80
2021/04/26 02:44:25;;;;;;;0.50;0.40;;;3.00;99.90;;;;;;5080027;28;20281;-81
2021/04/26 02:47:02;;;;;;;0.50;0.40;;;3.00;99.90;;;;;;5080035;28;20227;-78
2021/04/26 02:49:29;;;;;;;0.50;0.50;;;3.00;99.90;;;;;;5079981;28;20192;-79
2021/04/26 02:51:57;;;;;;;0.50;0.40;;;3.00;99.90;;;;;;5078944;28;20195;-80
2021/04/26 02:54:24;;;;;;;0.50;0.43;;;3.00;99.90;;;;;;5079275;28;20573;-80
2021/04/26 02:56:52;;;;;;;0.50;0.40;;;2.90;99.90;;;;;;5078243;28;20203;-78
2021/04/26 02:59:20;;;;;;;0.50;0.45;;;2.90;99.90;;;;;;5078931;28;20201;-80
2021/04/26 03:01:48;;;;;;;0.50;0.40;;;2.90;99.90;;;;;;5078760;28;20239;-81
2021/04/26 03:04:16;;;;;;;0.50;0.40;;;2.90;99.90;;;;;;5072915;28;20192;-79
2021/04/26 03:06:43;;;;;;;0.50;0.40;;;2.80;99.90;;;;;;5076031;28;20206;-80
2021/04/26 03:09:12;;;;;;;0.50;0.40;;;2.80;99.90;;;;;;5079373;28;20210;-80
2021/04/26 03:11:38;;;;;;;0.50;0.40;;;2.70;99.90;;;;;;5078139;28;20575;-80
2021/04/26 03:14:06;;;;;;;0.50;0.40;;;2.60;99.90;;;;;;5078068;28;20591;-80
2021/04/26 03:16:33;;;;;;;0.50;0.40;;;2.60;99.90;;;;;;5079091;28;20186;-80
2021/04/26 03:19:00;;;;;;;0.50;0.40;;;2.60;99.90;;;;;;5077392;28;20206;-80
2021/04/26 03:21:28;;;;;;;0.50;0.40;;;2.70;99.90;;;;;;5078062;28;20193;-79
2021/04/26 03:23:55;;;;;;;0.50;0.50;;;2.80;99.90;;;;;;5076803;28;20262;-79
2021/04/26 03:26:22;;;;;;;0.50;0.40;;;2.80;99.90;;;;;;5076851;28;20251;-78
2021/04/26 03:28:50;;;;;;;0.50;0.40;;;2.90;99.90;;;;;;5077140;28;20220;-80
2021/04/26 03:31:18;;;;;;;0.70;0.60;;;2.90;99.90;;;;;;5076522;28;20197;-79
2021/04/26 03:33:45;;;;;;;0.52;0.52;;;2.90;99.90;;;;;;5074951;28;20222;-78
2021/04/26 03:36:14;;;;;;;0.82;0.82;;;2.90;99.90;;;;;;5069796;28;20187;-78
2021/04/26 03:38:42;;;;;;;0.50;0.40;;;2.90;99.90;;;;;;5077106;28;20732;-78
2021/04/26 03:41:08;;;;;;;0.50;0.40;;;2.80;99.90;;;;;;5076766;28;20198;-78
2021/04/26 03:43:35;;;;;;;0.50;0.40;;;2.80;99.90;;;;;;5077730;28;20215;-79
2021/04/26 03:46:02;;;;;;;0.50;0.40;;;2.80;99.90;;;;;;5077761;28;20665;-82
2021/04/26 03:48:29;;;;;;;0.50;0.40;;;2.80;99.90;;;;;;5076481;28;20272;-78
2021/04/26 03:50:56;;;;;;;0.50;0.40;;;2.70;99.90;;;;;;5076121;28;20265;-80
2021/04/26 03:53:22;;;;;;;0.60;0.60;;;2.70;99.90;;;;;;5077247;28;20218;-80
2021/04/26 03:55:48;;;;;;;0.50;0.40;;;2.80;99.90;;;;;;5076668;28;20187;-79
2021/04/26 03:58:14;;;;;;;0.50;0.40;;;2.70;99.90;;;;;;5077334;28;20199;-79
2021/04/26 04:00:41;;;;;;;0.50;0.40;;;2.60;99.90;;;;;;5076621;28;20193;-78
2021/04/26 04:03:09;;;;;;;0.50;0.40;;;2.60;99.90;;;;;;5076341;28;20206;-79
2021/04/26 04:05:37;;;;;;;0.50;0.50;;;2.50;99.90;;;;;;5066611;28;20219;-80
2021/04/26 04:08:05;;;;;;;0.50;0.40;;;2.50;99.90;;;;;;5075616;28;20285;-81
2021/04/26 04:10:31;;;;;;;0.50;0.50;;;2.60;99.90;;;;;;5075924;28;20277;-80
2021/04/26 04:12:58;;;;;;;0.50;0.40;;;2.60;99.90;;;;;;5074864;28;20698;-80
2021/04/26 04:15:24;;;;;;;0.50;0.40;;;2.60;99.90;;;;;;5075079;28;20194;-78
2021/04/26 04:17:51;;;;;;;0.50;0.40;;;2.50;99.90;;;;;;5075351;28;20201;-79
2021/04/26 04:20:17;;;;;;;0.50;0.40;;;2.50;99.90;;;;;;5074801;28;20701;-77
2021/04/26 04:22:44;;;;;;;0.50;0.40;;;2.50;99.90;;;;;;5074157;28;20230;-81
2021/04/26 04:25:12;;;;;;;0.50;0.40;;;2.50;99.90;;;;;;5074501;28;20285;-80
2021/04/26 04:27:39;;;;;;;0.50;0.40;;;2.40;99.90;;;;;;5074812;28;20213;-79
2021/04/26 04:30:08;;;;;;;0.50;0.45;;;2.50;99.90;;;;;;5073897;28;20245;-81
2021/04/26 04:32:35;;;;;;;0.50;0.50;;;2.40;99.90;;;;;;5073984;28;20247;-80
2021/04/26 04:35:01;;;;;;;0.50;0.40;;;2.40;99.90;;;;;;5062379;28;20187;-79
2021/04/26 04:37:27;;;;;;;0.50;0.40;;;2.50;99.90;;;;;;5051188;28;20203;-82
2021/04/26 04:39:53;;;;;;;0.50;0.40;;;2.40;99.90;;;;;;5056833;28;20669;-79
2021/04/26 04:42:21;;;;;;;4.55;4.20;;;2.50;99.90;;;;;;5053649;28;20250;-80
2021/04/26 04:44:47;;;;;;;0.50;0.45;;;2.40;99.90;;;;;;5054097;28;20931;-78
2021/04/26 04:47:13;;;;;;;0.50;0.40;;;2.40;99.90;;;;;;5053553;28;20770;-80
2021/04/26 04:49:39;;;;;;;0.75;0.75;;;2.40;99.90;;;;;;5054065;28;20208;-80
2021/04/26 04:52:06;;;;;;;0.50;0.40;;;2.50;99.90;;;;;;5053442;28;20215;-80
2021/04/26 04:54:32;;;;;;;0.50;0.50;;;2.60;99.90;;;;;;5054000;28;20207;-78
2021/04/26 04:56:59;;;;;;;0.60;0.55;;;2.80;99.90;;;;;;5053347;28;20250;-79
2021/04/26 04:59:26;;;;;;;0.50;0.40;;;2.90;99.90;;;;;;5053607;28;20213;-79
2021/04/26 05:01:52;;;;;;;0.60;0.50;;;3.00;99.90;;;;;;5053274;28;20191;-80
2021/04/26 05:04:19;;;;;;;0.50;0.40;;;3.10;99.90;;;;;;5061493;28;20556;-80
2021/04/26 05:06:45;;;;;;;0.50;0.40;;;3.20;99.90;;;;;;5071221;28;20669;-81
2021/04/26 05:09:11;;;;;;;0.50;0.40;;;3.30;99.90;;;;;;5073901;28;20203;-79
2021/04/26 05:11:38;;;;;;;0.82;0.82;;;3.40;99.90;;;;;;5073255;28;20245;-79
2021/04/26 05:14:04;;;;;;;0.50;0.40;;;3.50;99.90;;;;;;5073799;28;20217;-80
2021/04/26 05:16:32;;;;;;;0.50;0.40;;;3.60;99.90;;;;;;5074649;28;20201;-80
2021/04/26 05:19:00;;;;;;;0.50;0.40;;;3.70;99.90;;;;;;5073907;28;20199;-78
2021/04/26 05:21:26;;;;;;;0.50;0.40;;;3.70;99.90;;;;;;5073228;28;20195;-80
2021/04/26 05:23:54;;;;;;;0.50;0.40;;;3.80;99.90;;;;;;5073259;28;20556;-80
2021/04/26 05:26:20;;;;;;;0.60;0.60;;;3.90;99.90;;;;;;5073671;28;20224;-80
2021/04/26 05:28:47;;;;;;;0.50;0.50;;;4.00;99.90;;;;;;5073011;28;20195;-80
2021/04/26 05:31:13;;;;;;;0.50;0.50;;;4.10;99.90;;;;;;5073052;28;20200;-79
2021/04/26 05:33:40;;;;;;;0.50;0.40;;;4.20;99.90;;;;;;5072555;28;20363;-79
2021/04/26 05:36:06;;;;;;;0.60;0.60;;;4.40;99.90;;;;;;5061365;28;20218;-77
2021/04/26 05:38:33;;;;;;;0.50;0.40;;;4.50;99.90;;;;;;5052823;28;20541;-79
2021/04/26 05:40:59;;;;;;;0.50;0.40;;;4.60;99.90;;;;;;5059595;28;20204;-76
2021/04/26 05:43:25;;;;;;;0.50;0.40;;;4.90;99.90;;;;;;5072323;28;20225;-79
2021/04/26 05:45:53;;;;;;;0.50;0.40;;;5.00;99.90;;;;;;5072123;28;20217;-78
2021/04/26 05:48:19;;;;;;;0.80;0.80;;;5.40;99.90;;;;;;5065863;28;20195;-77
2021/04/26 05:50:46;;;;;;;1.05;0.95;;;5.60;99.90;;;;;;5052341;28;20198;-78
2021/04/26 05:53:13;;;;;;;4.50;1.25;;;5.70;99.90;;;;;;5051605;28;20221;-80
2021/04/26 05:55:39;;;;;;;0.50;0.40;;;6.10;99.90;;;;;;5054797;28;20197;-77
2021/04/26 05:58:05;;;;;;;0.50;0.40;;;7.60;99.90;;;;;;5072182;28;20194;-78
2021/04/26 06:00:31;;;;;;;0.50;0.40;;;9.70;99.90;;;;;;5075881;28;20238;-79
2021/04/26 06:02:58;;;;;;;0.52;0.40;;;12.00;99.90;;;;;;5075684;28;20308;-79
2021/04/26 06:05:24;;;;;;;0.60;0.60;;;13.20;99.90;;;;;;5065989;28;20290;-79
2021/04/26 06:07:52;;;;;;;0.50;0.40;;;13.80;96.60;;;;;;5074452;28;20242;-80
2021/04/26 06:10:18;;;;;;;0.50;0.40;;;14.60;92.50;;;;;;5076685;28;20189;-78
2021/04/26 06:12:44;;;;;;;0.50;0.40;;;15.10;90.30;;;;;;5076035;28;20213;-79
2021/04/26 06:15:11;;;;;;;5.28;1.42;;;16.20;80.90;;;;;;5077354;28;20218;-79
2021/04/26 06:17:37;;;;;;;0.50;0.40;;;16.40;76.40;;;;;;5076079;28;20198;-79
2021/04/26 06:20:04;;;;;;;0.50;0.50;;;16.20;73.30;;;;;;5056305;28;20183;-80
2021/04/26 06:22:31;;;;;;;0.50;0.38;;;16.60;70.20;;;;;;5056071;28;20225;-79
2021/04/26 06:24:59;;;;;;;0.70;0.70;;;16.60;70.10;;;;;;5056268;28;20195;-81
2021/04/26 06:27:25;;;;;;;0.50;0.40;;;17.70;67.10;;;;;;5055762;28;20313;-79
2021/04/26 06:29:52;;;;;;;0.50;0.50;;;18.30;65.70;;;;;;5056481;28;20490;-80
2021/04/26 06:32:20;;;;;;;0.50;0.50;;;18.80;61.90;;;;;;5060292;28;20476;-80
2021/04/26 06:34:46;;;;;;;0.50;0.37;;;20.00;60.90;;;;;;5067897;28;20987;-81
2021/04/26 06:37:13;;;;;;;1.27;1.27;;;20.00;57.10;;;;;;5077404;28;20442;-81
2021/04/26 06:39:39;;;;;;;0.50;0.40;;;20.30;57.30;;;;;;5076726;28;20440;-77
2021/04/26 06:42:06;;;;;;;0.60;0.60;;;20.20;57.40;;;;;;5076735;28;20455;-80
2021/04/26 06:44:33;;;;;;;0.60;0.53;;;20.40;55.00;;;;;;5077406;28;20572;-79
2021/04/26 06:46:59;;;;;;;1.07;0.83;;;19.50;55.20;;;;;;5079443;28;20471;-78
2021/04/26 06:49:26;;;;;;;0.50;0.30;;;19.20;56.10;;;;;;5080968;28;20446;-78
2021/04/26 06:51:52;;;;;;;0.50;0.40;;;19.90;57.20;;;;;;5080395;28;20438;-77
2021/04/26 06:54:19;;;;;;;0.67;0.50;;;19.70;54.80;;;;;;5077405;28;20438;-77
2021/04/26 06:56:46;;;;;;;1.07;1.00;;;20.10;57.70;;;;;;5076787;28;20446;-78
2021/04/26 06:59:13;;;;;;;0.50;0.40;;;20.40;55.40;;;;;;5076772;28;20482;-78
2021/04/26 07:01:39;;;;;;;0.50;0.40;;;20.00;54.30;;;;;;5076469;28;20450;-77
2021/04/26 07:04:08;;;;;;;0.50;0.30;;;19.20;55.00;;;;;;5071280;28;20472;-78
2021/04/26 07:06:35;;;;;;;0.63;0.63;;;18.50;56.00;;;;;;5070954;28;20465;-79
2021/04/26 07:09:01;;;;;;;0.50;0.30;;;17.70;56.70;;;;;;5075048;28;20540;-78
2021/04/26 07:11:28;;;;;;;3.90;3.27;;;17.40;57.20;;;;;;5074295;28;20475;-79
2021/04/26 07:13:54;;;;;;;0.50;0.40;;;17.80;57.60;;;;;;5074714;28;20466;-79
2021/04/26 07:16:21;;;;;;;0.50;0.40;;;18.10;57.40;;;;;;5075090;28;20433;-79
2021/04/26 07:18:48;;;;;;;0.50;0.40;;;17.90;57.80;;;;;;5074688;28;20430;-79
2021/04/26 07:21:15;;;;;;;1.77;1.67;;;18.00;57.50;;;;;;5074638;28;20441;-79
2021/04/26 07:23:42;;;;;;;1.63;1.60;;;17.40;56.50;;;;;;5074550;28;20460;-79
2021/04/26 07:26:08;;;;;;;1.10;1.00;;;16.70;58.40;;;;;;5075843;28;20488;-77
2021/04/26 07:28:35;;;;;;;0.50;0.40;;;16.50;58.20;;;;;;5075505;28;20482;-77
2021/04/26 07:31:01;;;;;;;4.63;1.40;;;16.50;59.40;;;;;;5075751;28;20440;-77
2021/04/26 07:33:28;;;;;;;0.60;0.50;;;16.90;59.10;;;;;;5075319;28;20467;-77
2021/04/26 07:35:54;;;;;;;0.50;0.40;;;16.80;58.90;;;;;;5067197;28;20436;-79
2021/04/26 07:38:21;;;;;;;0.50;0.40;;;17.00;59.90;;;;;;5074529;28;20523;-79
2021/04/26 07:40:47;;;;;;;0.50;0.30;;;17.20;58.00;;;;;;5074154;28;20440;-79
2021/04/26 07:43:13;;;;;;;0.50;0.30;;;17.60;57.60;;;;;;5072371;28;20458;-78
2021/04/26 07:45:40;;;;;;;0.50;0.50;;;17.30;57.50;;;;;;5073566;28;20469;-79
2021/04/26 07:48:07;;;;;;;0.50;0.30;;;17.00;60.40;;;;;;5073222;28;20436;-79
2021/04/26 07:50:34;;;;;;;0.50;0.40;;;16.80;61.50;;;;;;5073444;28;20489;-78
2021/04/26 07:53:00;;;;;;;3.63;1.00;;;16.50;56.50;;;;;;5073847;28;20555;-79
2021/04/26 07:55:27;;;;;;;1.43;1.33;;;16.60;55.80;;;;;;5074078;28;20453;-79
2021/04/26 07:57:53;;;;;;;46.20;13.03;;;17.40;55.50;;;;;;5073920;28;20578;-79
2021/04/26 08:00:20;;;;;;;0.50;0.40;;;18.20;53.70;;;;;;5074265;28;20443;-77
2021/04/26 08:02:47;;;;;;;0.50;0.40;;;18.30;51.60;;;;;;5073457;28;20473;-77
2021/04/26 08:05:14;;;;;;;0.50;0.30;;;18.90;52.10;;;;;;5064493;28;20434;-79
2021/04/26 08:07:41;;;;;;;0.50;0.37;;;20.00;52.50;;;;;;5073174;28;20438;-78
2021/04/26 08:10:08;;;;;;;0.50;0.40;;;21.00;50.10;;;;;;5073084;28;20450;-79
2021/04/26 08:12:35;;;;;;;0.50;0.30;;;20.90;49.00;;;;;;5073166;28;21033;-79
2021/04/26 08:15:01;;;;;;;0.60;0.40;;;20.80;45.40;;;;;;5073630;28;20485;-79
2021/04/26 08:17:27;;;;;;;0.50;0.33;;;20.60;46.60;;;;;;5073339;28;20534;-78
2021/04/26 08:19:53;;;;;;;0.50;0.30;;;20.20;46.00;;;;;;5073056;28;20437;-79
2021/04/26 08:22:20;;;;;;;1.60;1.03;;;19.60;45.50;;;;;;5072753;28;20463;-79
2021/04/26 08:24:47;;;;;;;0.50;0.30;;;18.60;47.60;;;;;;5074306;28;20450;-79
2021/04/26 08:27:13;;;;;;;0.50;0.40;;;17.40;45.40;;;;;;5074656;28;20582;-79
2021/04/26 08:29:40;;;;;;;0.50;0.40;;;16.50;50.20;;;;;;5074883;28;20452;-79
2021/04/26 08:32:06;;;;;;;0.50;0.40;;;16.00;53.40;;;;;;5073950;28;20491;-80
2021/04/26 08:34:32;;;;;;;0.50;0.40;;;16.20;49.20;;;;;;5058610;28;20425;-80
2021/04/26 08:36:59;;;;;;;0.50;0.40;;;17.10;51.40;;;;;;5054306;28;20439;-80
2021/04/26 08:39:25;;;;;;;0.50;0.40;;;17.00;46.50;;;;;;5055101;28;20441;-79
2021/04/26 08:41:52;;;;;;;1.27;0.73;;;16.60;46.90;;;;;;5054360;28;20455;-80
2021/04/26 08:44:19;;;;;;;0.60;0.60;;;16.50;47.90;;;;;;5054849;28;20491;-79
2021/04/26 08:46:47;;;;;;;0.50;0.40;;;16.00;48.00;;;;;;5054449;28;20980;-79
2021/04/26 08:49:16;;;;;;;0.50;0.40;;;15.60;48.70;;;;;;5054054;28;20468;-81
2021/04/26 08:51:43;;;;;;;1.43;1.40;;;15.20;49.50;;;;;;5053524;28;20205;-79
2021/04/26 08:54:12;;;;;;;1.90;1.60;;;15.20;49.60;;;;;;5053528;28;20484;-80
2021/04/26 08:56:38;;;;;;;0.50;0.30;;;15.30;51.20;;;;;;5053598;28;20440;-80
2021/04/26 08:59:05;;;;;;;0.50;0.40;;;15.60;49.70;;;;;;5059957;28;20451;-79
2021/04/26 09:01:32;;;;;;;0.50;0.40;;;16.50;49.40;;;;;;5053956;28;20925;-79
2021/04/26 09:04:05;;;;;;;0.50;0.40;;;17.30;48.50;;;;;;5067499;28;20459;-81
2021/04/26 09:06:50;;;;;;;0.50;0.40;;;18.20;50.00;;;;;;5069356;28;20462;-80
2021/04/26 09:09:35;;;;;;;2.10;0.80;;;20.00;48.20;;;;;;5074496;28;20432;-80
2021/04/26 09:12:02;;;;;;;0.50;0.30;;;21.50;45.60;;;;;;5073165;28;20492;-80
2021/04/26 09:14:54;;;;;;;0.50;0.30;;;21.50;44.90;;;;;;5074478;28;20865;-80
2021/04/26 09:17:34;;;;;;;0.50;0.30;;;21.20;42.80;;;;;;5073717;28;20423;-80
2021/04/26 09:20:21;;;;;;;1.17;1.17;;;21.20;45.40;;;;;;5074115;28;20444;-79
2021/04/26 09:22:49;;;;;;;0.50;0.30;;;20.90;43.60;;;;;;5074321;28;20524;-80
2021/04/26 09:25:27;;;;;;;0.50;0.40;;;19.10;42.60;;;;;;5073721;28;20464;-80
2021/04/26 09:27:57;;;;;;;0.60;0.37;;;18.10;45.60;;;;;;5074216;28;20462;-80
2021/04/26 09:30:40;;;;;;;0.50;0.40;;;17.30;45.80;;;;;;5073601;28;20436;-79
2021/04/26 09:33:29;;;;;;;0.50;0.40;;;16.50;45.70;;;;;;5071059;28;20834;-80
2021/04/26 09:36:01;;;;;;;0.80;0.80;;;16.30;46.80;;;;;;5053241;28;20457;-80
2021/04/26 09:38:30;;;;;;;0.73;0.73;;;15.90;46.60;;;;;;5057545;28;20436;-79
2021/04/26 09:41:28;;;;;;;0.50;0.40;;;15.70;47.30;;;;;;5057160;28;20433;-79
2021/04/26 09:44:09;;;;;;;1.13;0.90;;;15.60;48.10;;;;;;4996014;28;21083;-80
2021/04/26 09:46:41;;;;;;;0.50;0.40;;;15.80;47.70;;;;;;4995402;28;20519;-80
2021/04/26 09:49:08;;;;;;;0.50;0.30;;;15.80;47.70;;;;;;4995831;28;20450;-80
2021/04/26 09:51:35;;;;;;;0.50;0.30;;;15.80;48.20;;;;;;4995080;28;20440;-80
2021/04/26 09:54:01;;;;;;;0.50;0.40;;;15.80;47.70;;;;;;4995602;28;20459;-79
2021/04/26 09:56:30;;;;;;;0.50;0.40;;;15.60;48.20;;;;;;5009043;28;20199;-80
2021/04/26 09:58:58;;;;;;;0.50;0.40;;;16.20;48.60;;;;;;5006609;28;20873;-79
2021/04/26 10:01:25;;;;;;;0.50;0.30;;;16.90;49.50;;;;;;5010946;28;20442;-81
2021/04/26 10:03:53;;;;;;;0.50;0.30;;;17.30;46.90;;;;;;4998116;28;20491;-78
2021/04/26 10:06:20;;;;;;;0.50;0.40;;;17.40;46.50;;;;;;4996579;28;20935;-80
2021/04/26 10:08:48;;;;;;;0.60;0.50;;;18.10;48.60;;;;;;4997011;28;20444;-80
2021/04/26 10:11:14;;;;;;;0.50;0.30;;;19.00;47.50;;;;;;5000491;28;21010;-80
2021/04/26 10:13:41;;;;;;;0.50;0.40;;;19.20;44.30;;;;;;5015636;28;20456;-82
2021/04/26 10:16:13;;;;;;;0.50;0.40;;;19.20;46.10;;;;;;4997473;28;20474;-81
2021/04/26 10:18:41;;;;;;;0.50;0.30;;;19.10;46.00;;;;;;4996993;28;20440;-81
2021/04/26 10:21:33;;;;;;;0.50;0.30;;;19.80;44.50;;;;;;5027723;28;20819;-80
2021/04/26 10:24:13;;;;;;;2.30;0.67;;;20.60;43.80;;;;;;5058752;28;20511;-80
2021/04/26 10:26:42;;;;;;;0.83;0.83;;;21.50;44.50;;;;;;5058880;28;20510;-80
2021/04/26 10:29:10;;;;;;;0.50;0.40;;;21.10;41.60;;;;;;5058204;28;20497;-82
2021/04/26 10:32:08;;;;;;;0.50;0.30;;;20.40;42.90;;;;;;5060093;28;20444;-80
2021/04/26 10:34:37;;;;;;;0.50;0.33;;;21.30;43.00;;;;;;5076921;28;20448;-81
2021/04/26 10:37:06;;;;;;;0.50;0.40;;;22.00;44.50;;;;;;5058198;28;20433;-81
2021/04/26 10:39:35;;;;;;;0.50;0.40;;;23.00;42.20;;;;;;5058746;28;20933;-80
2021/04/26 10:42:07;;;;;;;0.70;0.60;;;22.80;40.70;;;;;;5069076;28;20428;-81
2021/04/26 10:44:54;;;;;;;1.57;0.77;;;21.90;40.30;;;;;;5069237;28;20430;-81
2021/04/26 10:47:26;;;;;;;0.50;0.40;;;20.70;40.90;;;;;;5077298;28;20485;-79
2021/04/26 10:50:15;;;;;;;0.60;0.60;;;20.00;43.60;;;;;;5077301;28;20430;-81
2021/04/26 10:52:43;;;;;;;0.50;0.30;;;20.10;45.40;;;;;;5076817;28;20553;-81
2021/04/26 10:55:11;;;;;;;0.73;0.67;;;20.40;46.80;;;;;;5080018;28;20437;-81
2021/04/26 10:57:40;;;;;;;0.60;0.50;;;20.40;42.10;;;;;;5080671;28;20475;-80
2021/04/26 11:00:43;;;;;;;0.50;0.40;;;19.50;40.80;;;;;;5071720;28;20505;-81
2021/04/26 11:03:37;;;;;;;0.50;0.40;;;18.80;42.50;;;;;;5014738;28;21005;-80
2021/04/26 11:06:14;;;;;;;1.07;0.70;;;18.40;43.10;;;;;;5038060;28;21006;-82
2021/04/26 11:08:45;;;;;;;0.50;0.40;;;18.00;44.50;;;;;;5075554;28;20449;-82
2021/04/26 11:11:15;;;;;;;0.50;0.30;;;18.60;45.60;;;;;;5075015;28;20782;-81
2021/04/26 11:13:46;;;;;;;0.50;0.30;;;18.80;44.30;;;;;;5066896;28;20483;-81
2021/04/26 11:16:15;;;;;;;0.50;0.40;;;18.60;43.00;;;;;;5074383;28;20496;-81
2021/04/26 11:18:43;;;;;;;0.50;0.30;;;19.30;46.40;;;;;;5074256;28;20449;-79
2021/04/26 11:21:11;;;;;;;0.70;0.57;;;19.80;44.50;;;;;;5073960;28;20447;-81
2021/04/26 11:23:43;;;;;;;0.80;0.80;;;19.90;43.20;;;;;;5074345;28;20459;-81
2021/04/26 11:26:12;;;;;;;0.50;0.33;;;19.60;45.00;;;;;;5076195;28;20568;-80
2021/04/26 11:29:04;;;;;;;0.50;0.30;;;20.10;47.10;;;;;;5077035;28;20522;-80
2021/04/26 11:32:01;;;;;;;0.50;0.30;;;20.70;45.40;;;;;;5076127;28;20517;-81
2021/04/26 11:34:48;;;;;;;0.50;0.40;;;21.20;43.70;;;;;;5075813;28;20446;-79
2021/04/26 11:37:14;;;;;;;0.50;0.30;;;21.00;44.40;;;;;;5077186;28;20489;-80
2021/04/26 11:39:42;;;;;;;2.30;1.23;;;20.30;41.00;;;;;;5077329;28;20446;-83
2021/04/26 11:42:11;;;;;;;0.50;0.40;;;19.80;41.30;;;;;;5076223;28;20452;-78
2021/04/26 11:44:40;;;;;;;1.67;1.57;;;19.70;42.00;;;;;;5067745;28;20439;-81
2021/04/26 11:47:08;;;;;;;0.50;0.30;;;19.80;42.10;;;;;;5075877;28;21012;-81
2021/04/26 11:49:35;;;;;;;2.13;0.83;;;20.40;44.40;;;;;;5076625;28;20492;-81
2021/04/26 11:52:11;;;;;;;0.50;0.40;;;20.60;44.10;;;;;;5075752;28;20447;-81
2021/04/26 11:54:38;;;;;;;1.57;1.47;;;20.40;42.40;;;;;;5075834;28;20426;-80
2021/04/26 11:57:09;;;;;;;0.50;0.40;;;19.90;43.30;;;;;;5074912;28;20443;-80
2021/04/26 11:59:47;;;;;;;0.50;0.30;;;19.60;40.80;;;;;;5076201;28;20637;-81
2021/04/26 12:02:13;;;;;;;0.50;0.30;;;20.00;41.80;;;;;;5075462;28;20462;-81
2021/04/26 12:04:42;;;;;;;0.50;0.30;;;21.00;43.30;;;;;;5075924;28;20449;-81
2021/04/26 12:07:09;;;;;;;0.50;0.40;;;22.00;41.20;;;;;;5075469;28;20472;-77
2021/04/26 12:09:36;;;;;;;0.60;0.50;;;22.00;40.50;;;;;;5074545;28;20497;-78
2021/04/26 12:12:05;;;;;;;0.50;0.30;;;22.10;41.10;;;;;;5073594;28;20443;-79
2021/04/26 12:14:32;;;;;;;0.50;0.30;;;22.00;38.50;;;;;;5068055;28;20433;-80
2021/04/26 12:17:18;;;;;;;0.50;0.40;;;22.10;40.10;;;;;;5074769;28;20805;-80
2021/04/26 12:19:45;;;;;;;0.50;0.40;;;22.20;39.40;;;;;;5074667;28;20447;-81
2021/04/26 12:22:11;;;;;;;1.30;1.27;;;22.80;41.30;;;;;;5075058;28;20505;-80
2021/04/26 12:24:39;;;;;;;2.70;1.07;;;22.70;41.10;;;;;;5075788;28;20446;-79
2021/04/26 12:27:10;;;;;;;0.50;0.30;;;23.80;42.70;;;;;;5075306;28;21148;-79
2021/04/26 12:29:37;;;;;;;0.50;0.37;;;24.00;37.50;;;;;;5075095;28;20451;-81
2021/04/26 12:32:30;;;;;;;1.47;0.97;;;24.50;39.90;;;;;;5074349;28;20482;-80
2021/04/26 12:34:59;;;;;;;0.50;0.30;;;24.40;37.40;;;;;;5072068;28;20452;-80
2021/04/26 12:37:28;;;;;;;5.70;2.53;;;24.80;40.00;;;;;;5075022;28;20443;-78
2021/04/26 12:40:21;;;;;;;0.50;0.30;;;25.90;39.50;;;;;;5075552;28;20436;-82
2021/04/26 12:42:50;;;;;;;0.50;0.30;;;26.40;37.60;;;;;;5073575;28;20984;-79
2021/04/26 12:45:21;;;;;;;0.50;0.40;;;26.10;38.60;;;;;;5070615;28;20432;-80
2021/04/26 12:47:54;;;;;;;0.60;0.50;;;26.40;36.10;;;;;;5075387;28;20547;-81
2021/04/26 12:50:24;;;;;;;0.50;0.30;;;27.10;36.00;;;;;;5078410;28;20431;-79
2021/04/26 12:53:13;;;;;;;0.50;0.50;;;26.50;35.40;;;;;;5076455;28;20462;-76
2021/04/26 12:55:43;;;;;;;0.50;0.40;;;27.30;37.20;;;;;;5073569;28;20503;-80
2021/04/26 12:58:12;;;;;;;0.50;0.30;;;27.80;36.00;;;;;;5073924;28;20436;-80
2021/04/26 13:00:42;;;;;;;0.50;0.30;;;27.50;34.10;;;;;;5073748;28;20432;-80
2021/04/26 13:03:30;;;;;;;0.50;0.30;;;27.90;33.80;;;;;;5073676;28;20465;-80